WXM80 ListenWXM80 Stop

You find our weather info also at:

UK Metoffice

WeatherCloud

Weather Underground

Northeastern Weather Network

AWEKAS

Citizen Weather Observer Program (CWOP)

HAMweather, WeatherForYou, PWS Weather


Weather Underground History page Text

Daily Summary for February 1, 2018 Units:  Metric    English   Both
« Previous Day
Next Day »
Daily Weekly Monthly Yearly Custom
  High: Low: Average:
Temperature: 6.3 °C 0.1 °C 3.3 °C
Dew Point: 2.3 °C -5 °C -1 °C
Humidity: 93 % 62 % 74 %
Wind Speed: 13 km/h 0 km/h 3.4 km/h
Wind Gust: 22.2 km/h - -
Wind:- - SSW
Pressure: 1010 hPa 1001.9 hPa -
Precipitation: 0 mm    
Historical Graphs
 
 
Tabular Data for February 1, 2018
Time Temperature Dew Point Pressure Wind Wind Speed Wind Gust Humidity Rainfall Rate (Hourly)
00:02 0.2 °C -4.6 °C 1009.7 hPa SSW 10.5 km/h 13 km/h 70 % 0 mm
00:07 0.2 °C -4.6 °C 1009.7 hPa SW 9 km/h 13 km/h 70 % 0 mm
00:12 0.2 °C -4.6 °C 1009.7 hPa SSW 8.9 km/h 16.7 km/h 70 % 0 mm
00:17 0.2 °C -4.8 °C 1009.7 hPa SW 13 km/h 22.2 km/h 69 % 0 mm
00:22 0.2 °C -4.8 °C 1009.7 hPa SW 11.1 km/h 16.1 km/h 69 % 0 mm
00:27 0.2 °C -5 °C 1010 hPa WSW 9.2 km/h 13 km/h 68 % 0 mm
00:32 0.2 °C -5 °C 1009.7 hPa SW 3.7 km/h 6.4 km/h 68 % 0 mm
00:37 0.2 °C -5 °C 1010 hPa SW 8.7 km/h 18.5 km/h 68 % 0 mm
00:43 0.2 °C -5 °C 1010 hPa SSW 6 km/h 14.5 km/h 68 % 0 mm
00:48 0.2 °C -4.8 °C 1009.7 hPa WSW 5.6 km/h 11.1 km/h 69 % 0 mm
00:53 0.2 °C -4.8 °C 1009.7 hPa WSW 3.7 km/h 5.6 km/h 69 % 0 mm
00:58 0.2 °C -4.8 °C 1009.7 hPa SW 6.3 km/h 11.1 km/h 69 % 0 mm
01:03 0.2 °C -4.8 °C 1009.4 hPa SW 1.9 km/h 9.3 km/h 69 % 0 mm
01:08 0.2 °C -4.8 °C 1009.4 hPa SSW 7.6 km/h 11.1 km/h 69 % 0 mm
01:09 0.2 °C -4.8 °C 1009.4 hPa SW 3.1 km/h 6.4 km/h 69 % 0 mm
01:14 0.2 °C -4.8 °C 1009.4 hPa SW 9.2 km/h 11.1 km/h 69 % 0 mm
01:19 0.2 °C -4.8 °C 1009.4 hPa South 6 km/h 11.1 km/h 69 % 0 mm
01:25 0.2 °C -4.7 °C 1009.4 hPa WSW 8.4 km/h 13 km/h 70 % 0 mm
01:30 0.1 °C -4.7 °C 1009 hPa WSW 5 km/h 11.1 km/h 70 % 0 mm
01:35 0.1 °C -4.7 °C 1009 hPa SSW 4.8 km/h 11.3 km/h 70 % 0 mm
01:40 0.1 °C -4.7 °C 1009 hPa SW 6 km/h 11.1 km/h 70 % 0 mm
01:45 0.1 °C -4.6 °C 1009 hPa SW 5.8 km/h 11.1 km/h 71 % 0 mm
01:50 0.1 °C -4.6 °C 1009 hPa SW 4 km/h 7.4 km/h 71 % 0 mm
01:55 0.1 °C -4.6 °C 1009 hPa SSW 5.3 km/h 8 km/h 71 % 0 mm
02:00 0.1 °C -4.6 °C 1008.7 hPa SSW 7.6 km/h 12.9 km/h 71 % 0 mm
02:05 0.2 °C -4.3 °C 1009 hPa SW 6.3 km/h 8 km/h 72 % 0 mm
02:10 0.2 °C -4.3 °C 1009 hPa SW 1.9 km/h 5.6 km/h 72 % 0 mm
02:15 0.2 °C -4.3 °C 1009 hPa SW 4.2 km/h 7.4 km/h 72 % 0 mm
02:20 0.2 °C -4.1 °C 1009 hPa SSW 5.6 km/h 8 km/h 73 % 0 mm
02:25 0.3 °C -4 °C 1008.7 hPa SSW 5.5 km/h 13 km/h 73 % 0 mm
02:30 0.3 °C -4 °C 1008.7 hPa SW 7.9 km/h 11.3 km/h 73 % 0 mm
02:35 0.3 °C -3.9 °C 1008.4 hPa SSW 4.7 km/h 8 km/h 73 % 0 mm
02:40 0.3 °C -3.9 °C 1008.4 hPa SSW 9 km/h 11.1 km/h 73 % 0 mm
02:46 0.4 °C -3.9 °C 1008.4 hPa WSW 9.2 km/h 9.3 km/h 73 % 0 mm
02:51 0.4 °C -3.8 °C 1008.4 hPa SSW 4.8 km/h 19.3 km/h 73 % 0 mm
02:56 0.5 °C -3.8 °C 1008.4 hPa SW 3.2 km/h 14.5 km/h 73 % 0 mm
03:00 0.5 °C -3.6 °C 1008.7 hPa SW 5.6 km/h 13 km/h 74 % 0 mm
03:05 0.5 °C -3.6 °C 1008.4 hPa SW 2.7 km/h 9.3 km/h 74 % 0 mm
03:10 0.5 °C -3.6 °C 1008.7 hPa SSW 2.4 km/h 7.4 km/h 74 % 0 mm
03:15 0.5 °C -3.6 °C 1008.7 hPa SW 5 km/h 7.4 km/h 74 % 0 mm
03:20 0.6 °C -3.6 °C 1008.7 hPa SW 6.4 km/h 9.7 km/h 74 % 0 mm
03:25 0.6 °C -3.6 °C 1008.4 hPa SW 6.3 km/h 11.1 km/h 74 % 0 mm
03:31 0.6 °C -3.4 °C 1008.4 hPa SSW 8 km/h 12.9 km/h 75 % 0 mm
03:36 0.6 °C -3.4 °C 1008.4 hPa SW 5.6 km/h 13 km/h 75 % 0 mm
03:41 0.6 °C -3.3 °C 1008.4 hPa SSW 10 km/h 14.8 km/h 75 % 0 mm
03:46 0.7 °C -3.3 °C 1008.4 hPa WSW 2.4 km/h 8 km/h 75 % 0 mm
03:51 0.7 °C -3.3 °C 1008.4 hPa SSW 3.4 km/h 11.1 km/h 75 % 0 mm
03:56 0.7 °C -3.3 °C 1008 hPa SW 7.1 km/h 13 km/h 75 % 0 mm
04:01 0.7 °C -3.2 °C 1008 hPa SSW 6 km/h 9.3 km/h 75 % 0 mm
04:06 0.7 °C -3.2 °C 1008 hPa SSW 3.5 km/h 9.3 km/h 75 % 0 mm
04:11 0.7 °C -3.2 °C 1008 hPa SW 7.2 km/h 13 km/h 75 % 0 mm
04:16 0.8 °C -3.2 °C 1008 hPa Calm   1.9 km/h 75 % 0 mm
04:21 0.8 °C -3.2 °C 1008 hPa SW 6.1 km/h 11.1 km/h 75 % 0 mm
04:27 0.8 °C -3.1 °C 1008 hPa SW 4 km/h 7.4 km/h 75 % 0 mm
04:32 0.9 °C -3.1 °C 1007.7 hPa SW 4.2 km/h 7.4 km/h 75 % 0 mm
04:37 0.9 °C -3 °C 1007.7 hPa South 6.8 km/h 11.3 km/h 75 % 0 mm
04:42 0.9 °C -3 °C 1007.7 hPa SW 1.6 km/h 9.3 km/h 75 % 0 mm
04:47 1 °C -2.9 °C 1007.7 hPa SW 4.8 km/h 7.4 km/h 75 % 0 mm
04:52 1 °C -2.9 °C 1007.7 hPa SSW 3.7 km/h 7.4 km/h 75 % 0 mm
04:57 1.1 °C -2.9 °C 1007.7 hPa SSW 3.1 km/h 9.7 km/h 75 % 0 mm
05:02 1.1 °C -2.9 °C 1007.7 hPa SW 0.3 km/h 3.7 km/h 75 % 0 mm
05:07 1.1 °C -2.8 °C 1007.7 hPa SW 1.1 km/h 5.6 km/h 75 % 0 mm
05:12 1.1 °C -2.8 °C 1007.7 hPa WSW 5 km/h 6.4 km/h 75 % 0 mm
05:17 1.1 °C -2.8 °C 1007.3 hPa SSW 6.4 km/h 9.3 km/h 75 % 0 mm
05:22 1.1 °C -2.8 °C 1007.3 hPa SSW 6.8 km/h 12.9 km/h 75 % 0 mm
05:28 1.2 °C -2.9 °C 1007.7 hPa WSW 3.7 km/h 5.6 km/h 74 % 0 mm
05:33 1.2 °C -2.9 °C 1007.3 hPa SW 4.5 km/h 11.1 km/h 74 % 0 mm
05:38 1.2 °C -2.7 °C 1007.3 hPa SW 5 km/h 11.1 km/h 75 % 0 mm
05:43 1.2 °C -2.7 °C 1007.7 hPa SW 5.6 km/h 13 km/h 75 % 0 mm
05:48 1.2 °C -2.7 °C 1007.7 hPa SW 3.9 km/h 5.6 km/h 75 % 0 mm
05:53 1.3 °C -2.7 °C 1007.3 hPa SW 1.6 km/h 5.6 km/h 75 % 0 mm
05:58 1.3 °C -2.7 °C 1007.7 hPa SSW 4.2 km/h 5.6 km/h 75 % 0 mm
06:03 1.3 °C -2.6 °C 1007.3 hPa SW 5 km/h 6.4 km/h 75 % 0 mm
06:08 1.3 °C -2.6 °C 1007.7 hPa SSW 3.2 km/h 3.7 km/h 75 % 0 mm
06:13 1.3 °C -2.6 °C 1007.7 hPa WSW 5.1 km/h 7.4 km/h 75 % 0 mm
06:18 1.3 °C -2.6 °C 1007.7 hPa WSW 2.1 km/h 3.2 km/h 75 % 0 mm
06:24 1.3 °C -2.6 °C 1007.7 hPa WSW 3.9 km/h 7.4 km/h 75 % 0 mm
06:29 1.3 °C -2.6 °C 1007.7 hPa SW 1 km/h 5.6 km/h 75 % 0 mm
06:34 1.4 °C -2.7 °C 1007.7 hPa SSW 4.5 km/h 5.6 km/h 74 % 0 mm
06:39 1.4 °C -2.5 °C 1007.7 hPa SSW 2.9 km/h 6.4 km/h 75 % 0 mm
06:44 1.4 °C -2.7 °C 1007.7 hPa SSW 2.9 km/h 6.4 km/h 74 % 0 mm
06:49 1.4 °C -2.7 °C 1007.7 hPa South 3.1 km/h 7.4 km/h 74 % 0 mm
06:54 1.5 °C -2.4 °C 1007.3 hPa SSW 4.7 km/h 7.4 km/h 75 % 0 mm
06:59 1.5 °C -2.4 °C 1007.3 hPa SSW 5 km/h 6.4 km/h 75 % 0 mm
07:04 1.5 °C -2.4 °C 1007.3 hPa SSW 2.6 km/h 6.4 km/h 75 % 0 mm
07:09 1.5 °C -2.4 °C 1007.3 hPa SW 5.5 km/h 9.3 km/h 75 % 0 mm
07:14 1.6 °C -2.4 °C 1007.3 hPa SW 2.7 km/h 6.4 km/h 75 % 0 mm
07:19 1.6 °C -2.4 °C 1007.3 hPa SSW 5.3 km/h 9.3 km/h 75 % 0 mm
07:24 1.6 °C -2.4 °C 1007.3 hPa South 4.7 km/h 5.6 km/h 75 % 0 mm
07:29 1.6 °C -2.3 °C 1007.3 hPa SW 6.4 km/h 13 km/h 75 % 0 mm
07:34 1.6 °C -2.3 °C 1007 hPa SSW 4.3 km/h 9.3 km/h 75 % 0 mm
07:40 1.7 °C -2.2 °C 1007 hPa SSW 3.7 km/h 9.3 km/h 75 % 0 mm
07:45 1.8 °C -2.2 °C 1007 hPa South 1.9 km/h 7.4 km/h 75 % 0 mm
07:50 1.8 °C -2.1 °C 1007 hPa SW 3.5 km/h 5.6 km/h 75 % 0 mm
07:55 1.9 °C -2.1 °C 1007 hPa SSW 5.5 km/h 9.7 km/h 75 % 0 mm
08:00 1.9 °C -2 °C 1007 hPa SW 2.9 km/h 7.4 km/h 75 % 0 mm
08:05 2 °C -2.2 °C 1007 hPa SSW 6.4 km/h 9.7 km/h 74 % 0 mm
08:10 2.1 °C -2.1 °C 1007 hPa South 3.7 km/h 11.1 km/h 74 % 0 mm
08:15 2.2 °C -2 °C 1007 hPa SSW 4 km/h 9.3 km/h 74 % 0 mm
08:20 2.2 °C -1.9 °C 1007 hPa SSW 7.6 km/h 11.1 km/h 74 % 0 mm
08:25 2.3 °C -2 °C 1007 hPa South 9.2 km/h 14.8 km/h 73 % 0 mm
08:30 2.4 °C -1.9 °C 1006.7 hPa SSW 6.9 km/h 9.7 km/h 73 % 0 mm
08:35 2.5 °C -1.8 °C 1006.7 hPa SW 5.8 km/h 13 km/h 73 % 0 mm
08:40 2.6 °C -1.9 °C 1007 hPa SSW 4 km/h 9.3 km/h 72 % 0 mm
08:45 2.7 °C -1.7 °C 1007 hPa SW 8.4 km/h 12.9 km/h 73 % 0 mm
08:50 2.8 °C -1.8 °C 1007 hPa SSW 4 km/h 9.3 km/h 72 % 0 mm
08:55 2.8 °C -1.7 °C 1007 hPa SSW 5.5 km/h 11.1 km/h 72 % 0 mm
09:00 2.9 °C -1.6 °C 1007 hPa SSW 8.9 km/h 13 km/h 72 % 0 mm
09:05 3 °C -1.7 °C 1007 hPa SW 3.4 km/h 11.1 km/h 71 % 0 mm
09:10 3.1 °C -1.7 °C 1007 hPa SSW 5.8 km/h 9.3 km/h 71 % 0 mm
09:15 3.2 °C -1.6 °C 1007 hPa SW 5 km/h 9.3 km/h 71 % 0 mm
09:20 3.3 °C -1.5 °C 1007 hPa SSW 9.8 km/h 11.1 km/h 71 % 0 mm
09:25 3.3 °C -1.7 °C 1007 hPa SSW 3.5 km/h 11.1 km/h 70 % 0 mm
09:31 3.3 °C -1.6 °C 1007 hPa SSW 5.5 km/h 13 km/h 70 % 0 mm
09:36 3.4 °C -1.5 °C 1007.3 hPa SW 3.2 km/h 14.5 km/h 70 % 0 mm
09:41 3.5 °C -1.4 °C 1007.3 hPa SW 4.8 km/h 12.9 km/h 70 % 0 mm
09:46 3.6 °C -1.6 °C 1007 hPa SW 8 km/h 11.3 km/h 69 % 0 mm
09:51 3.7 °C -1.5 °C 1007.3 hPa SSW 3.2 km/h 16.1 km/h 69 % 0 mm
09:56 3.7 °C -1.4 °C 1007 hPa SSW 3.2 km/h 11.3 km/h 69 % 0 mm
10:01 3.8 °C -1.3 °C 1007 hPa South 7.1 km/h 13 km/h 69 % 0 mm
10:06 4 °C -1.2 °C 1007 hPa SSW 5.8 km/h 14.8 km/h 69 % 0 mm
10:11 4.2 °C -0.9 °C 1007 hPa SSW 8.5 km/h 16.1 km/h 69 % 0 mm
10:16 4.4 °C -1.2 °C 1007 hPa SSW 4.5 km/h 11.1 km/h 67 % 0 mm
10:21 4.7 °C -0.9 °C 1007 hPa South 6.3 km/h 18.5 km/h 67 % 0 mm
10:26 4.9 °C -0.9 °C 1007.3 hPa South 6.8 km/h 11.1 km/h 66 % 0 mm
10:31 5.1 °C -0.8 °C 1007.3 hPa SSW 3.1 km/h 5.6 km/h 66 % 0 mm
10:36 5.2 °C -0.9 °C 1007 hPa SSW 5.5 km/h 7.4 km/h 65 % 0 mm
10:41 5.3 °C -1 °C 1007 hPa SSW 8.2 km/h 11.1 km/h 64 % 0 mm
10:46 5.3 °C -0.7 °C 1007 hPa SSW 6.4 km/h 8 km/h 65 % 0 mm
10:51 5.4 °C -0.6 °C 1007 hPa SSW 2.4 km/h 6.4 km/h 65 % 0 mm
10:56 5.5 °C -0.8 °C 1007 hPa SSW 2.3 km/h 9.7 km/h 64 % 0 mm
11:01 5.6 °C -0.7 °C 1007 hPa SSW 3.4 km/h 9.7 km/h 64 % 0 mm
11:06 5.6 °C -0.9 °C 1007 hPa WSW 4 km/h 5.6 km/h 63 % 0 mm
11:11 5.7 °C -0.8 °C 1006.7 hPa SW 7.9 km/h 9.3 km/h 63 % 0 mm
11:17 5.7 °C -0.8 °C 1007 hPa SW 4.3 km/h 6.4 km/h 63 % 0 mm
11:22 5.7 °C -0.8 °C 1006.7 hPa South 4.2 km/h 11.1 km/h 63 % 0 mm
11:27 5.7 °C -0.8 °C 1006.7 hPa West 7.1 km/h 13 km/h 63 % 0 mm
11:32 5.7 °C -1.1 °C 1006.7 hPa SSW 3.9 km/h 9.7 km/h 62 % 0 mm
11:37 5.7 °C -0.8 °C 1006.3 hPa SW 8.4 km/h 11.1 km/h 63 % 0 mm
11:42 5.7 °C -1 °C 1006.3 hPa WSW 5.8 km/h 11.1 km/h 62 % 0 mm
11:47 5.8 °C -0.7 °C 1006 hPa South 2.9 km/h 7.4 km/h 63 % 0 mm
11:52 5.8 °C -0.7 °C 1005.6 hPa South 2.3 km/h 8 km/h 63 % 0 mm
11:57 5.9 °C -0.6 °C 1005.6 hPa SSW 2.4 km/h 6.4 km/h 63 % 0 mm
12:02 5.8 °C -0.7 °C 1005.6 hPa South 5.3 km/h 7.4 km/h 63 % 0 mm
12:07 5.9 °C -0.3 °C 1005.6 hPa SSW 5.5 km/h 7.4 km/h 64 % 0 mm
12:12 5.9 °C -0.6 °C 1005.3 hPa SSW 6.1 km/h 13 km/h 63 % 0 mm
12:17 5.9 °C -0.8 °C 1005.3 hPa SSE 3.4 km/h 11.1 km/h 62 % 0 mm
12:22 5.9 °C -0.6 °C 1005.3 hPa South 3.5 km/h 9.3 km/h 63 % 0 mm
12:27 5.9 °C -0.6 °C 1005.3 hPa SSW 4.5 km/h 7.4 km/h 63 % 0 mm
12:32 5.9 °C -0.3 °C 1005.6 hPa South 6.1 km/h 11.1 km/h 64 % 0 mm
12:37 5.9 °C -0.6 °C 1005.3 hPa SSW 2.4 km/h 5.6 km/h 63 % 0 mm
12:42 5.9 °C -0.3 °C 1005.6 hPa SW 2.4 km/h 9.3 km/h 64 % 0 mm
12:48 5.9 °C -0.3 °C 1005.3 hPa SSW 3.9 km/h 7.4 km/h 64 % 0 mm
12:53 6 °C -0.3 °C 1005 hPa SE 1.4 km/h 9.3 km/h 64 % 0 mm
12:58 5.9 °C -0.6 °C 1005 hPa South 3.5 km/h 5.6 km/h 63 % 0 mm
13:03 6 °C -0.5 °C 1005 hPa SSW 3.1 km/h 7.4 km/h 63 % 0 mm
13:08 6 °C -0.3 °C 1005 hPa WSW 5.3 km/h 14.8 km/h 64 % 0 mm
13:13 6 °C -0.3 °C 1005 hPa South 5.8 km/h 7.4 km/h 64 % 0 mm
13:18 6.1 °C -0.1 °C 1005 hPa South 0.8 km/h 3.7 km/h 65 % 0 mm
13:23 6.1 °C -0.1 °C 1005 hPa SW 5.1 km/h 7.4 km/h 65 % 0 mm
13:28 6.1 °C -0.2 °C 1005 hPa SSW 5.3 km/h 8 km/h 64 % 0 mm
13:33 6.1 °C -0.2 °C 1005 hPa South 1.3 km/h 5.6 km/h 64 % 0 mm
13:38 6.2 °C -0.2 °C 1004.6 hPa WSW 4 km/h 5.6 km/h 64 % 0 mm
13:43 6.3 °C 0.2 °C 1004.6 hPa SSW 5.5 km/h 6.4 km/h 65 % 0 mm
13:48 6.3 °C -0.3 °C 1004.6 hPa SSE 2.7 km/h 5.6 km/h 63 % 0 mm
13:53 6.3 °C 0 °C 1004.6 hPa South 4 km/h 11.3 km/h 64 % 0 mm
13:58 6.3 °C 0 °C 1004.6 hPa South 0.8 km/h 3.7 km/h 64 % 0 mm
14:03 6.3 °C 0.2 °C 1004.6 hPa South 1.6 km/h 1.9 km/h 65 % 0 mm
14:08 6.3 °C -0.3 °C 1004.6 hPa SW 2.3 km/h 5.6 km/h 63 % 0 mm
14:14 6.3 °C -0.3 °C 1004.6 hPa SSW 1.3 km/h 3.7 km/h 63 % 0 mm
14:19 6.3 °C -0.2 °C 1004.6 hPa SW 2.3 km/h 11.1 km/h 63 % 0 mm
14:24 6.3 °C -0.3 °C 1004.6 hPa South 5.1 km/h 11.1 km/h 63 % 0 mm
14:29 6.2 °C -0.3 °C 1004.6 hPa SSE 1.6 km/h 5.6 km/h 63 % 0 mm
14:34 6.2 °C -0.2 °C 1004.3 hPa SSW 5.6 km/h 8 km/h 64 % 0 mm
14:39 6.2 °C -0.2 °C 1004.3 hPa SW 2.6 km/h 5.6 km/h 64 % 0 mm
14:44 6.2 °C -0.2 °C 1004.3 hPa SSW 3.9 km/h 5.6 km/h 64 % 0 mm
14:49 6.2 °C -0.2 °C 1004.6 hPa South 3.5 km/h 6.4 km/h 64 % 0 mm
14:54 6.2 °C -0.2 °C 1004.6 hPa South 4 km/h 5.6 km/h 64 % 0 mm
14:59 6.1 °C -0.2 °C 1004.3 hPa SSW 3.9 km/h 9.3 km/h 64 % 0 mm
15:04 6 °C -0.1 °C 1004.3 hPa SSW 5.3 km/h 7.4 km/h 65 % 0 mm
15:09 5.9 °C -0.2 °C 1004.3 hPa SSW 5.5 km/h 8 km/h 65 % 0 mm
15:14 5.9 °C 0 °C 1004.3 hPa South 3.5 km/h 5.6 km/h 66 % 0 mm
15:19 5.8 °C 0.2 °C 1004.3 hPa South 2.6 km/h 5.6 km/h 67 % 0 mm
15:24 5.8 °C 0.1 °C 1004.3 hPa SSW 5 km/h 5.6 km/h 67 % 0 mm
15:30 5.7 °C 0.1 °C 1004.3 hPa SSW 3.7 km/h 8 km/h 67 % 0 mm
15:35 5.7 °C 0 °C 1004.3 hPa SSW 2.3 km/h 9.3 km/h 67 % 0 mm
15:40 5.7 °C 0.2 °C 1004.6 hPa SSW 0.6 km/h 5.6 km/h 68 % 0 mm
15:45 5.6 °C 0.4 °C 1004.6 hPa South 2.4 km/h 11.1 km/h 69 % 0 mm
15:50 5.5 °C 0.4 °C 1004.6 hPa South 1 km/h 5.6 km/h 70 % 0 mm
15:55 5.5 °C 0.4 °C 1004.6 hPa South 3.2 km/h 9.3 km/h 70 % 0 mm
16:00 5.4 °C 0.4 °C 1004.6 hPa SW 2.6 km/h 5.6 km/h 70 % 0 mm
16:05 5.4 °C 0.3 °C 1004.6 hPa South 2.3 km/h 5.6 km/h 70 % 0 mm
16:10 5.3 °C 0.3 °C 1004.3 hPa SSW 2.4 km/h 9.7 km/h 70 % 0 mm
16:15 5.3 °C 0.2 °C 1004.6 hPa South 5.6 km/h 7.4 km/h 70 % 0 mm
16:20 5.2 °C 0.2 °C 1004.6 hPa SSW 1.8 km/h 5.6 km/h 70 % 0 mm
16:25 5.2 °C 0.2 °C 1004.6 hPa SSW 2.1 km/h 5.6 km/h 70 % 0 mm
16:30 5.2 °C 0.1 °C 1004.6 hPa SSW 2.6 km/h 6.4 km/h 70 % 0 mm
16:36 5.1 °C 0.1 °C 1004.6 hPa Calm     70 % 0 mm
16:41 5.1 °C 0.2 °C 1004.6 hPa South 1.6 km/h 8 km/h 71 % 0 mm
16:46 5 °C 0.2 °C 1004.6 hPa South 1.6 km/h 11.3 km/h 71 % 0 mm
16:51 4.9 °C 0.3 °C 1004.3 hPa South 4.7 km/h 7.4 km/h 72 % 0 mm
16:56 4.9 °C 0.3 °C 1004.6 hPa South 1.9 km/h 5.6 km/h 72 % 0 mm
17:01 4.8 °C 0.4 °C 1004.6 hPa SSW 1.3 km/h 5.6 km/h 73 % 0 mm
17:06 4.8 °C 0.3 °C 1004.6 hPa SW 2.4 km/h 5.6 km/h 73 % 0 mm
17:11 4.8 °C 0.3 °C 1004.6 hPa SW 1.4 km/h 5.6 km/h 73 % 0 mm
17:16 4.7 °C 0.3 °C 1004.6 hPa WSW 1.4 km/h 5.6 km/h 73 % 0 mm
17:21 4.7 °C 0.3 °C 1004.3 hPa WSW 0.2 km/h 1.9 km/h 73 % 0 mm
17:26 4.7 °C 0.2 °C 1004.6 hPa SW 0.8 km/h 1.6 km/h 73 % 0 mm
17:31 4.7 °C 0.2 °C 1004.6 hPa South 0.3 km/h 1.9 km/h 73 % 0 mm
17:36 4.7 °C 0.4 °C 1004.6 hPa South 0.5 km/h 3.2 km/h 74 % 0 mm
17:41 4.6 °C 0.4 °C 1004.6 hPa South 0.3 km/h 1.9 km/h 74 % 0 mm
17:46 4.6 °C 0.6 °C 1004.6 hPa South 1.9 km/h 5.6 km/h 75 % 0 mm
17:51 4.6 °C 0.7 °C 1004.6 hPa SSW 0.3 km/h 5.6 km/h 76 % 0 mm
17:56 4.6 °C 0.7 °C 1004.6 hPa Calm     76 % 0 mm
18:01 4.5 °C 0.8 °C 1004.6 hPa SW 0.2 km/h 3.7 km/h 77 % 0 mm
18:06 4.5 °C 0.8 °C 1004.6 hPa Calm     77 % 0 mm
18:11 4.5 °C 0.8 °C 1004.6 hPa Calm     77 % 0 mm
18:17 4.5 °C 1 °C 1005 hPa SW 0.8 km/h 1.6 km/h 78 % 0 mm
18:22 4.4 °C 0.9 °C 1005 hPa Calm   3.7 km/h 78 % 0 mm
18:27 4.4 °C 0.9 °C 1005 hPa SW 1 km/h   78 % 0 mm
18:32 4.4 °C 1.1 °C 1004.6 hPa Calm     79 % 0 mm
18:37 4.4 °C 1.1 °C 1004.6 hPa Calm     79 % 0 mm
18:42 4.4 °C 1.3 °C 1004.6 hPa Calm     80 % 0 mm
18:47 4.4 °C 1.3 °C 1004.6 hPa Calm     80 % 0 mm
18:52 4.4 °C 1.2 °C 1004.6 hPa Calm     80 % 0 mm
18:57 4.4 °C 1.2 °C 1004.6 hPa Calm     80 % 0 mm
19:02 4.3 °C 1.2 °C 1004.6 hPa Calm     80 % 0 mm
19:07 4.3 °C 1.2 °C 1004.6 hPa Calm     80 % 0 mm
19:12 4.3 °C 1.6 °C 1004.6 hPa Calm     82 % 0 mm
19:17 4.3 °C 1.7 °C 1004.3 hPa Calm     83 % 0 mm
19:22 4.3 °C 1.5 °C 1004.3 hPa Calm     82 % 0 mm
19:27 4.2 °C 1.4 °C 1004.6 hPa Calm     82 % 0 mm
19:32 4.2 °C 1.6 °C 1004.6 hPa Calm     83 % 0 mm
19:37 4.2 °C 1.8 °C 1004.6 hPa Calm     84 % 0 mm
19:42 4.2 °C 1.7 °C 1005 hPa Calm     84 % 0 mm
19:48 4.2 °C 1.7 °C 1004.6 hPa Calm     84 % 0 mm
19:53 4.1 °C 1.7 °C 1004.6 hPa Calm     84 % 0 mm
19:58 4.1 °C 1.7 °C 1004.6 hPa Calm     84 % 0 mm
20:03 4.1 °C 1.8 °C 1004.6 hPa Calm     85 % 0 mm
20:08 4.1 °C 1.9 °C 1004.6 hPa Calm     86 % 0 mm
20:13 4.1 °C 2.1 °C 1004.6 hPa Calm     87 % 0 mm
20:18 4 °C 2.1 °C 1004.6 hPa Calm     87 % 0 mm
20:23 4 °C 2.1 °C 1004.3 hPa Calm     87 % 0 mm
20:28 3.9 °C 2 °C 1004.6 hPa Calm     87 % 0 mm
20:33 3.9 °C 2 °C 1004.3 hPa Calm     87 % 0 mm
20:38 3.9 °C 1.9 °C 1003.9 hPa Calm     87 % 0 mm
20:43 3.8 °C 1.9 °C 1003.9 hPa Calm     87 % 0 mm
20:48 3.8 °C 1.9 °C 1003.9 hPa Calm     87 % 0 mm
20:53 3.8 °C 1.8 °C 1003.6 hPa Calm     87 % 0 mm
20:58 3.7 °C 1.7 °C 1003.6 hPa Calm     87 % 0 mm
21:03 3.6 °C 1.7 °C 1003.6 hPa Calm     87 % 0 mm
21:08 3.6 °C 1.6 °C 1003.6 hPa Calm     87 % 0 mm
21:13 3.5 °C 1.6 °C 1003.6 hPa Calm     87 % 0 mm
21:18 3.5 °C 1.6 °C 1003.6 hPa Calm     87 % 0 mm
21:24 3.4 °C 1.5 °C 1003.3 hPa Calm     87 % 0 mm
21:29 3.4 °C 1.5 °C 1002.9 hPa Calm     87 % 0 mm
21:34 3.4 °C 1.4 °C 1002.6 hPa Calm     87 % 0 mm
21:39 3.3 °C 1.4 °C 1002.6 hPa Calm     87 % 0 mm
21:44 3.3 °C 1.6 °C 1002.6 hPa Calm     88 % 0 mm
21:49 3.3 °C 1.6 °C 1002.6 hPa Calm     88 % 0 mm
21:54 3.3 °C 1.7 °C 1002.6 hPa Calm     89 % 0 mm
21:59 3.3 °C 1.7 °C 1002.6 hPa Calm     89 % 0 mm
22:04 3.3 °C 1.7 °C 1002.6 hPa Calm     89 % 0 mm
22:09 3.3 °C 1.8 °C 1002.6 hPa Calm     90 % 0 mm
22:14 3.3 °C 1.8 °C 1002.3 hPa Calm     90 % 0 mm
22:19 3.3 °C 1.8 °C 1001.9 hPa Calm     90 % 0 mm
22:24 3.3 °C 1.8 °C 1001.9 hPa Calm     90 % 0 mm
22:29 3.3 °C 1.8 °C 1001.9 hPa Calm     90 % 0 mm
22:34 3.3 °C 1.8 °C 1001.9 hPa Calm     90 % 0 mm
22:39 3.3 °C 1.8 °C 1001.9 hPa Calm     90 % 0 mm
22:44 3.3 °C 1.8 °C 1001.9 hPa Calm     90 % 0 mm
22:49 3.3 °C 1.8 °C 1002.3 hPa Calm     90 % 0 mm
22:54 3.3 °C 1.8 °C 1001.9 hPa Calm     90 % 0 mm
22:59 3.3 °C 1.8 °C 1001.9 hPa Calm     90 % 0 mm
23:05 3.2 °C 1.7 °C 1002.3 hPa Calm     90 % 0 mm
23:10 3.3 °C 1.9 °C 1001.9 hPa Calm     91 % 0 mm
23:15 3.2 °C 1.9 °C 1001.9 hPa Calm     91 % 0 mm
23:20 3.3 °C 1.9 °C 1001.9 hPa Calm   1.9 km/h 91 % 0 mm
23:25 3.3 °C 2.1 °C 1001.9 hPa WSW 2.4 km/h 3.7 km/h 92 % 0 mm
23:30 3.3 °C 2.1 °C 1001.9 hPa Calm     92 % 0 mm
23:35 3.3 °C 2.1 °C 1001.9 hPa NNW 1 km/h 4.8 km/h 92 % 0 mm
23:40 3.3 °C 2.3 °C 1002.3 hPa NNW 4 km/h 5.6 km/h 93 % 0 mm
23:45 3.2 °C 2 °C 1001.9 hPa NNW 2.9 km/h 5.6 km/h 92 % 0 mm
23:50 3.1 °C 1.9 °C 1001.9 hPa NNW 1.8 km/h 3.7 km/h 92 % 0 mm
23:55 3 °C 1.8 °C 1001.9 hPa North 0.5 km/h 5.6 km/h 92 % 0 mm
Crab Meadow Weather
Compliments of Weather Underground - 3 mb

Script developed by  Jim McMurry - jmcmurry@mwt.net Adapted for the template by  Wim van der Kuil - Leuven-Template.eu

Astronomy: The gravity on Jupiter is 2.6 times that of the Earth.